createdAt,value
2023-03-26T00:01:37.087Z,6.50
2023-03-26T00:04:39.409Z,6.43
2023-03-26T00:07:42.763Z,6.61
2023-03-26T00:10:45.078Z,6.52
2023-03-26T00:13:48.171Z,6.53
2023-03-26T00:16:50.672Z,6.44
2023-03-26T00:19:53.737Z,6.58
2023-03-26T00:22:56.532Z,6.56
2023-03-26T00:25:58.902Z,6.50
2023-03-26T00:29:03.561Z,6.65
2023-03-26T00:32:06.626Z,6.65
2023-03-26T00:35:09.543Z,6.51
2023-03-26T00:38:11.857Z,6.41
2023-03-26T00:41:26.981Z,6.75
2023-03-26T00:44:29.619Z,6.49
2023-03-26T00:47:32.113Z,6.50
2023-03-26T00:50:34.444Z,6.44
2023-03-26T00:53:39.037Z,6.42
2023-03-26T00:56:41.598Z,6.63
2023-03-26T00:59:43.970Z,6.34
2023-03-26T01:02:46.517Z,6.61
2023-03-26T01:05:54.827Z,6.47
2023-03-26T01:09:00.476Z,6.61
2023-03-26T01:12:06.755Z,6.76
2023-03-26T01:15:09.909Z,6.94
2023-03-26T01:18:14.261Z,6.87
2023-03-26T01:21:23.502Z,6.76
2023-03-26T01:24:25.925Z,6.62
2023-03-26T01:27:50.177Z,6.67
2023-03-26T01:31:01.736Z,6.53
2023-03-26T01:34:24.199Z,6.40
2023-03-26T01:37:28.227Z,6.43
2023-03-26T01:40:38.791Z,6.54
2023-03-26T01:44:18.601Z,6.46
2023-03-26T01:47:21.611Z,6.29
2023-03-26T01:50:24.068Z,6.45
2023-03-26T01:53:26.865Z,6.14
2023-03-26T01:56:36.847Z,6.13
2023-03-26T02:00:13.054Z,6.26
2023-03-26T02:03:32.144Z,6.29
2023-03-26T02:06:46.422Z,6.42
2023-03-26T02:09:52.820Z,6.24
2023-03-26T02:12:55.753Z,6.27
2023-03-26T02:16:00.982Z,6.46
2023-03-26T02:19:04.613Z,6.33
2023-03-26T02:22:11.247Z,6.24
2023-03-26T02:25:17.213Z,6.37
2023-03-26T02:28:20.124Z,6.18
2023-03-26T02:31:26.454Z,6.10
2023-03-26T02:34:29.458Z,6.18
2023-03-26T02:37:33.998Z,6.60
2023-03-26T02:40:44.462Z,6.46
2023-03-26T02:43:47.012Z,6.23
2023-03-26T02:46:52.501Z,6.48
2023-03-26T02:50:13.525Z,6.52
2023-03-26T02:53:48.262Z,6.26
2023-03-26T02:57:07.028Z,6.29
2023-03-26T03:00:38.611Z,6.31
2023-03-26T03:04:13.392Z,6.16
2023-03-26T03:07:16.715Z,6.28
2023-03-26T03:10:22.203Z,6.11
2023-03-26T03:13:46.380Z,6.08
2023-03-26T03:16:54.471Z,6.19
2023-03-26T03:19:58.101Z,5.99
2023-03-26T03:23:00.872Z,6.32
2023-03-26T03:26:04.722Z,6.35
2023-03-26T03:29:09.458Z,6.56
2023-03-26T03:32:12.649Z,6.58
2023-03-26T03:35:23.782Z,6.25
2023-03-26T03:38:30.854Z,6.09
2023-03-26T03:41:34.089Z,6.23
2023-03-26T03:44:39.436Z,6.23
2023-03-26T03:47:51.302Z,6.01
2023-03-26T03:50:59.980Z,6.31
2023-03-26T03:54:06.843Z,6.30
2023-03-26T03:57:22.148Z,6.47
2023-03-26T04:00:41.765Z,6.15
2023-03-26T04:04:10.621Z,6.31
2023-03-26T04:07:39.627Z,6.52
2023-03-26T04:10:43.851Z,6.24
2023-03-26T04:13:52.082Z,6.04
2023-03-26T04:17:21.987Z,6.18
2023-03-26T04:20:26.024Z,6.24
2023-03-26T04:23:29.413Z,6.43
2023-03-26T04:26:41.266Z,6.21
2023-03-26T04:29:50.409Z,6.07
2023-03-26T04:32:58.770Z,6.13
2023-03-26T04:36:04.376Z,6.27
2023-03-26T04:39:13.436Z,6.11
2023-03-26T04:42:34.259Z,6.15
2023-03-26T04:45:58.098Z,6.23
2023-03-26T04:49:03.567Z,6.13
2023-03-26T04:52:06.386Z,6.31
2023-03-26T04:55:42.320Z,6.10
2023-03-26T04:58:57.054Z,6.54
2023-03-26T05:02:02.625Z,6.53
2023-03-26T05:05:10.354Z,6.44
2023-03-26T05:08:13.148Z,6.53
2023-03-26T05:11:15.679Z,6.05
2023-03-26T05:14:18.460Z,6.30
2023-03-26T05:17:25.321Z,6.09
2023-03-26T05:20:30.353Z,6.31
2023-03-26T05:23:32.981Z,6.37
2023-03-26T05:26:54.814Z,6.39
2023-03-26T05:30:02.960Z,6.46
2023-03-26T05:33:10.831Z,6.46
2023-03-26T05:36:21.125Z,6.24
2023-03-26T05:39:31.967Z,6.40
2023-03-26T05:42:37.090Z,6.18
2023-03-26T05:46:00.625Z,6.15
2023-03-26T05:49:06.371Z,6.06
2023-03-26T05:52:15.311Z,5.99
2023-03-26T05:55:50.630Z,5.75
2023-03-26T05:59:11.293Z,6.09
2023-03-26T06:02:26.115Z,5.89
2023-03-26T06:05:52.060Z,5.97
2023-03-26T06:09:06.868Z,5.87
2023-03-26T06:12:10.661Z,6.01
2023-03-26T06:15:14.515Z,6.24
2023-03-26T06:18:37.589Z,6.40
2023-03-26T06:21:58.569Z,6.50
2023-03-26T06:25:07.279Z,6.56
2023-03-26T06:28:23.744Z,6.75
2023-03-26T06:31:42.192Z,6.68
2023-03-26T06:35:07.461Z,6.78
2023-03-26T06:38:09.873Z,6.76
2023-03-26T06:41:12.454Z,6.44
2023-03-26T06:44:14.727Z,6.25
2023-03-26T06:47:46.362Z,6.40
2023-03-26T06:50:51.534Z,6.22
2023-03-26T06:54:07.637Z,6.10
2023-03-26T06:57:18.970Z,6.37
2023-03-26T07:00:40.437Z,6.45
2023-03-26T07:04:08.966Z,6.48
2023-03-26T07:07:30.023Z,6.73
2023-03-26T07:10:58.438Z,6.87
2023-03-26T07:14:30.536Z,7.06
2023-03-26T07:17:56.548Z,6.83
2023-03-26T07:21:03.314Z,7.17
2023-03-26T07:24:13.791Z,7.29
2023-03-26T07:27:50.776Z,7.14
2023-03-26T07:31:11.613Z,6.95
2023-03-26T07:34:34.004Z,6.95
2023-03-26T07:38:03.956Z,6.53
2023-03-26T07:41:35.417Z,5.99
2023-03-26T07:45:24.892Z,6.32
2023-03-26T07:48:49.948Z,6.47
2023-03-26T07:52:11.776Z,6.73
2023-03-26T07:55:30.129Z,6.65
2023-03-26T07:59:11.455Z,6.77
2023-03-26T08:02:38.081Z,6.65
2023-03-26T08:06:17.076Z,6.59
2023-03-26T08:09:41.115Z,6.64
2023-03-26T08:13:11.057Z,6.62
2023-03-26T08:16:23.985Z,6.55
2023-03-26T08:19:38.782Z,6.60
2023-03-26T08:22:50.874Z,6.84
2023-03-26T08:26:06.745Z,7.09
2023-03-26T08:29:12.016Z,7.16
2023-03-26T08:32:17.285Z,7.38
2023-03-26T08:35:19.606Z,8.10
2023-03-26T08:38:22.484Z,7.98
2023-03-26T08:41:48.542Z,7.70
2023-03-26T08:45:06.342Z,7.74
2023-03-26T08:48:30.033Z,7.78
2023-03-26T08:51:47.517Z,8.28
2023-03-26T08:55:11.158Z,8.24
2023-03-26T08:58:38.995Z,7.60
2023-03-26T09:01:45.691Z,7.57
2023-03-26T09:05:30.400Z,7.28
2023-03-26T09:08:54.427Z,7.48
2023-03-26T09:12:33.136Z,7.32
2023-03-26T09:15:57.533Z,7.32
2023-03-26T09:19:23.962Z,7.07
2023-03-26T09:22:56.589Z,7.43
2023-03-26T09:26:28.004Z,7.78
2023-03-26T09:29:54.486Z,8.44
2023-03-26T09:33:21.851Z,8.85
2023-03-26T09:37:08.861Z,8.82
2023-03-26T09:40:19.276Z,8.91
2023-03-26T09:43:30.702Z,8.98
2023-03-26T09:47:07.049Z,9.00
2023-03-26T09:50:21.741Z,8.66
2023-03-26T09:53:50.710Z,8.44
2023-03-26T09:57:06.340Z,8.52
2023-03-26T10:00:43.952Z,8.19
2023-03-26T10:03:49.410Z,7.75
2023-03-26T10:07:32.916Z,7.23
2023-03-26T10:10:49.113Z,7.18
2023-03-26T10:14:12.317Z,6.85
2023-03-26T10:17:26.983Z,6.32
2023-03-26T10:21:14.499Z,6.49
2023-03-26T10:24:38.648Z,5.66
2023-03-26T10:28:18.661Z,5.31
2023-03-26T10:31:27.184Z,5.75
2023-03-26T10:35:07.084Z,5.96
2023-03-26T10:38:12.329Z,6.24
2023-03-26T10:41:20.724Z,6.68
2023-03-26T10:44:37.222Z,6.68
2023-03-26T10:47:56.976Z,6.19
2023-03-26T10:51:17.845Z,6.27
2023-03-26T10:54:35.652Z,5.95
2023-03-26T10:57:54.338Z,6.55
2023-03-26T11:01:04.069Z,6.80
2023-03-26T11:04:16.883Z,7.02
2023-03-26T11:07:29.362Z,7.33
2023-03-26T11:10:48.431Z,7.80
2023-03-26T11:14:24.357Z,7.74
2023-03-26T11:17:40.608Z,7.77
2023-03-26T11:21:19.771Z,7.96
2023-03-26T11:24:38.894Z,8.02
2023-03-26T11:28:00.126Z,7.98
2023-03-26T11:31:15.376Z,8.22
2023-03-26T11:34:24.619Z,8.32
2023-03-26T11:37:33.272Z,8.43
2023-03-26T11:40:41.708Z,8.69
2023-03-26T11:43:55.512Z,8.90
2023-03-26T11:47:01.698Z,9.18
2023-03-26T11:50:05.235Z,9.25
2023-03-26T11:53:19.667Z,9.29
2023-03-26T11:57:06.402Z,9.29
2023-03-26T12:00:21.746Z,8.91
2023-03-26T12:03:24.373Z,9.26
2023-03-26T12:06:29.102Z,9.13
2023-03-26T12:09:32.654Z,9.03
2023-03-26T12:12:41.183Z,9.20
2023-03-26T12:15:45.466Z,8.79
2023-03-26T12:19:00.111Z,8.23
2023-03-26T12:22:02.562Z,8.70
2023-03-26T12:25:20.735Z,8.64
2023-03-26T12:28:23.505Z,8.55
2023-03-26T12:31:26.716Z,9.23
2023-03-26T12:34:35.467Z,9.35
2023-03-26T12:37:40.270Z,9.34
2023-03-26T12:40:43.736Z,9.52
2023-03-26T12:44:45.988Z,9.71
2023-03-26T12:47:58.450Z,9.91
2023-03-26T12:50:57.397Z,10.23
2023-03-26T12:54:10.111Z,9.79
2023-03-26T12:57:13.427Z,9.61
2023-03-26T13:00:25.121Z,9.65
2023-03-26T13:03:38.042Z,9.47
2023-03-26T13:06:58.883Z,9.86
2023-03-26T13:10:23.642Z,10.60
2023-03-26T13:13:47.687Z,9.96
2023-03-26T13:17:00.046Z,9.70
2023-03-26T13:20:12.642Z,9.67
2023-03-26T13:23:30.577Z,9.69
2023-03-26T13:26:57.956Z,9.52
2023-03-26T13:30:24.316Z,9.18
2023-03-26T13:33:55.814Z,9.16
2023-03-26T13:37:04.459Z,8.91
2023-03-26T13:41:23.652Z,8.79
2023-03-26T13:44:34.291Z,8.78
2023-03-26T13:47:44.742Z,8.70
2023-03-26T13:50:57.265Z,9.48
2023-03-26T13:54:22.474Z,10.00
2023-03-26T13:57:25.687Z,9.71
2023-03-26T14:01:07.807Z,9.16
2023-03-26T14:04:32.650Z,9.01
2023-03-26T14:07:43.044Z,8.81
2023-03-26T14:10:54.217Z,8.48
2023-03-26T14:14:04.187Z,9.02
2023-03-26T14:17:23.212Z,8.58
2023-03-26T14:21:07.782Z,8.24
2023-03-26T14:24:17.681Z,8.03
2023-03-26T14:27:21.914Z,8.48
2023-03-26T14:30:33.382Z,8.64
2023-03-26T14:33:42.908Z,8.56
2023-03-26T14:36:51.153Z,8.59
2023-03-26T14:40:21.092Z,8.67
2023-03-26T14:43:46.502Z,8.34
2023-03-26T14:46:58.149Z,8.02
2023-03-26T14:50:22.399Z,7.50
2023-03-26T14:53:34.526Z,7.21
2023-03-26T14:56:44.948Z,7.23
2023-03-26T15:00:16.071Z,7.18
2023-03-26T15:03:21.126Z,7.41
2023-03-26T15:06:29.338Z,7.50
2023-03-26T15:09:31.625Z,7.47
2023-03-26T15:12:55.047Z,7.69
2023-03-26T15:16:35.796Z,8.47
2023-03-26T15:20:19.979Z,8.91
2023-03-26T15:23:47.421Z,9.28
2023-03-26T15:26:56.910Z,8.88
2023-03-26T15:30:02.020Z,8.64
2023-03-26T15:33:07.868Z,8.39
2023-03-26T15:36:47.677Z,8.43
2023-03-26T15:39:59.434Z,7.96
2023-03-26T15:43:15.751Z,8.17
2023-03-26T15:46:39.473Z,8.20
2023-03-26T15:50:12.714Z,8.13
2023-03-26T15:53:23.686Z,8.02
2023-03-26T15:56:49.244Z,7.96
2023-03-26T16:00:23.008Z,7.87
2023-03-26T16:03:31.107Z,7.84
2023-03-26T16:07:02.977Z,7.89
2023-03-26T16:10:18.919Z,7.93
2023-03-26T16:13:27.060Z,8.05
2023-03-26T16:16:59.319Z,8.43
2023-03-26T16:20:27.066Z,8.26
2023-03-26T16:23:58.670Z,8.10
2023-03-26T16:27:08.440Z,7.94
2023-03-26T16:30:29.244Z,7.99
2023-03-26T16:34:00.137Z,7.91
2023-03-26T16:37:08.940Z,7.76
2023-03-26T16:40:23.670Z,7.44
2023-03-26T16:43:41.022Z,7.25
2023-03-26T16:46:48.233Z,7.11
2023-03-26T16:50:08.882Z,6.91
2023-03-26T16:53:21.430Z,6.93
2023-03-26T16:56:49.534Z,6.75
2023-03-26T17:00:07.558Z,6.67
2023-03-26T17:03:35.570Z,6.55
2023-03-26T17:06:56.800Z,6.50
2023-03-26T17:10:14.604Z,6.41
2023-03-26T17:13:23.471Z,6.27
2023-03-26T17:16:29.611Z,6.22
2023-03-26T17:19:40.267Z,6.10
2023-03-26T17:22:45.461Z,6.06
2023-03-26T17:26:17.046Z,5.95
2023-03-26T17:29:27.434Z,5.85
2023-03-26T17:32:58.941Z,5.79
2023-03-26T17:36:13.575Z,5.69
2023-03-26T17:39:19.722Z,5.65
2023-03-26T17:42:37.723Z,5.66
2023-03-26T17:45:43.895Z,5.61
2023-03-26T17:49:15.330Z,5.59
2023-03-26T17:52:25.500Z,5.57
2023-03-26T17:55:33.097Z,5.47
2023-03-26T17:58:44.850Z,5.41
2023-03-26T18:01:48.378Z,5.49
2023-03-26T18:04:52.960Z,5.50
2023-03-26T18:08:02.339Z,5.35
2023-03-26T18:11:16.193Z,5.16
2023-03-26T18:14:25.000Z,5.01
2023-03-26T18:17:27.432Z,4.81
2023-03-26T18:20:32.034Z,4.84
2023-03-26T18:23:39.671Z,4.83
2023-03-26T18:26:50.309Z,4.85
2023-03-26T18:30:23.521Z,4.52
2023-03-26T18:33:26.143Z,4.65
2023-03-26T18:36:28.591Z,4.66
2023-03-26T18:39:32.414Z,4.65
2023-03-26T18:42:37.115Z,4.77
2023-03-26T18:45:41.364Z,4.89
2023-03-26T18:48:44.563Z,5.00
2023-03-26T18:51:56.699Z,5.10
2023-03-26T18:55:00.507Z,5.23
2023-03-26T18:58:11.329Z,5.34
2023-03-26T19:01:23.761Z,5.32
2023-03-26T19:04:31.405Z,5.26
2023-03-26T19:07:36.000Z,5.29
2023-03-26T19:10:38.967Z,5.19
2023-03-26T19:13:41.946Z,5.24
2023-03-26T19:16:50.322Z,5.29
2023-03-26T19:19:52.919Z,5.15
2023-03-26T19:22:57.045Z,5.05
2023-03-26T19:26:01.710Z,4.69
2023-03-26T19:29:04.696Z,4.49
2023-03-26T19:32:17.597Z,4.36
2023-03-26T19:35:22.969Z,4.25
2023-03-26T19:38:28.267Z,4.29
2023-03-26T19:41:36.988Z,4.24
2023-03-26T19:44:39.806Z,4.23
2023-03-26T19:47:50.358Z,4.33
2023-03-26T19:51:06.684Z,4.40
2023-03-26T19:54:16.151Z,4.44
2023-03-26T19:57:18.721Z,4.61
2023-03-26T20:00:22.289Z,4.65
2023-03-26T20:03:30.411Z,4.74
2023-03-26T20:06:42.438Z,4.67
2023-03-26T20:09:45.931Z,4.66
2023-03-26T20:12:48.343Z,4.60
2023-03-26T20:16:29.996Z,4.70
2023-03-26T20:19:32.414Z,4.48
2023-03-26T20:22:34.902Z,4.39
2023-03-26T20:25:39.382Z,4.33
2023-03-26T20:28:48.242Z,4.12
2023-03-26T20:31:55.368Z,3.98
2023-03-26T20:34:57.810Z,3.82
2023-03-26T20:38:00.136Z,3.69
2023-03-26T20:41:02.441Z,3.52
2023-03-26T20:44:13.612Z,3.39
2023-03-26T20:47:16.652Z,3.28
2023-03-26T20:50:21.974Z,3.25
2023-03-26T20:53:25.083Z,3.03
2023-03-26T20:56:28.257Z,2.93
2023-03-26T20:59:30.861Z,2.79
2023-03-26T21:02:33.261Z,2.69
2023-03-26T21:05:35.964Z,2.52
2023-03-26T21:08:38.694Z,2.50
2023-03-26T21:12:07.251Z,2.52
2023-03-26T21:15:22.530Z,2.47
2023-03-26T21:18:28.366Z,2.26
2023-03-26T21:22:09.625Z,2.19
2023-03-26T21:25:20.901Z,2.09
2023-03-26T21:28:49.906Z,2.36
2023-03-26T21:31:54.205Z,2.33
2023-03-26T21:34:59.503Z,2.20
2023-03-26T21:38:04.274Z,2.23
2023-03-26T21:41:06.964Z,2.04
2023-03-26T21:44:09.411Z,1.60
2023-03-26T21:47:12.138Z,1.66
2023-03-26T21:50:21.967Z,1.70
2023-03-26T21:53:24.660Z,1.68
2023-03-26T21:56:54.910Z,1.70
2023-03-26T22:00:15.663Z,1.78
2023-03-26T22:03:28.933Z,1.65
2023-03-26T22:06:34.248Z,1.66
2023-03-26T22:09:36.841Z,1.61
2023-03-26T22:12:39.780Z,1.67
2023-03-26T22:15:42.127Z,1.57
2023-03-26T22:18:44.508Z,1.56
2023-03-26T22:21:46.866Z,1.44
2023-03-26T22:24:49.455Z,1.51
2023-03-26T22:27:52.821Z,1.49
2023-03-26T22:30:55.579Z,1.23
2023-03-26T22:33:58.492Z,1.24
2023-03-26T22:37:01.006Z,1.33
2023-03-26T22:40:18.008Z,1.29
2023-03-26T22:43:20.454Z,1.47
2023-03-26T22:46:23.870Z,1.54
2023-03-26T22:49:30.342Z,1.49
2023-03-26T22:52:32.842Z,1.42
2023-03-26T22:55:37.590Z,1.16
2023-03-26T22:58:40.066Z,1.28
2023-03-26T23:01:44.374Z,1.28
2023-03-26T23:04:48.110Z,1.21
2023-03-26T23:07:51.951Z,1.20
2023-03-26T23:10:54.651Z,1.20
2023-03-26T23:13:57.213Z,1.00
2023-03-26T23:17:00.656Z,0.95
2023-03-26T23:20:06.236Z,0.76
2023-03-26T23:23:08.524Z,0.69
2023-03-26T23:26:11.226Z,0.69
2023-03-26T23:29:13.982Z,0.66
2023-03-26T23:32:23.789Z,0.70
2023-03-26T23:35:27.535Z,0.62
2023-03-26T23:38:43.591Z,0.65
2023-03-26T23:41:46.683Z,0.64
2023-03-26T23:44:49.474Z,0.39
2023-03-26T23:47:51.860Z,0.55
2023-03-26T23:50:55.207Z,0.62
2023-03-26T23:54:07.804Z,0.55
2023-03-26T23:57:10.711Z,0.53
